createdAt,value
2019-03-16T00:04:24.903Z,99036.41
2019-03-16T00:06:54.822Z,99036.72
2019-03-16T00:09:25.282Z,99031.66
2019-03-16T00:11:55.317Z,99023.63
2019-03-16T00:14:25.135Z,99023.19
2019-03-16T00:16:55.254Z,99020.21
2019-03-16T00:19:25.621Z,99022.83
2019-03-16T00:21:55.464Z,99022.43
2019-03-16T00:24:25.112Z,99022.93
2019-03-16T00:26:55.084Z,99014.00
2019-03-16T00:29:24.809Z,99010.06
2019-03-16T00:31:55.042Z,99016.48
2019-03-16T00:34:24.926Z,99015.65
2019-03-16T00:36:57.430Z,99005.72
2019-03-16T00:39:27.716Z,99010.13
2019-03-16T00:41:57.430Z,99004.14
2019-03-16T00:44:27.141Z,99003.74
2019-03-16T00:46:56.947Z,99014.86
2019-03-16T00:49:27.074Z,99006.25
2019-03-16T00:51:56.753Z,99007.97
2019-03-16T00:54:26.707Z,99013.17
2019-03-16T00:56:56.702Z,99003.78
2019-03-16T00:59:27.174Z,99001.66
2019-03-16T01:01:57.670Z,99002.52
2019-03-16T01:04:27.491Z,99005.53
2019-03-16T01:09:36.729Z,98996.56
2019-03-16T01:12:06.866Z,99000.87
2019-03-16T01:14:36.618Z,98999.17
2019-03-16T01:17:06.988Z,98999.70
2019-03-16T01:19:36.794Z,98991.67
2019-03-16T01:22:06.861Z,98980.92
2019-03-16T01:24:36.524Z,98980.09
2019-03-16T01:27:06.484Z,98975.86
2019-03-16T01:29:36.405Z,98982.78
2019-03-16T01:32:06.245Z,98976.82
2019-03-16T01:34:36.225Z,98976.89
2019-03-16T01:37:06.964Z,98975.20
2019-03-16T01:39:36.837Z,98974.27
2019-03-16T01:42:07.468Z,98975.06
2019-03-16T01:44:37.228Z,98968.98
2019-03-16T01:47:07.262Z,98970.27
2019-03-16T01:49:37.321Z,98959.13
2019-03-16T01:52:06.924Z,98950.52
2019-03-16T01:54:37.016Z,98944.97
2019-03-16T01:57:06.786Z,98952.20
2019-03-16T01:59:36.539Z,98948.27
2019-03-16T02:02:06.271Z,98942.64
2019-03-16T02:04:36.067Z,98942.94
2019-03-16T02:07:06.301Z,98933.47
2019-03-16T02:09:36.380Z,98937.34
2019-03-16T02:12:06.481Z,98935.16
2019-03-16T02:14:36.225Z,98928.31
2019-03-16T02:17:06.261Z,98925.27
2019-03-16T02:19:36.253Z,98928.63
2019-03-16T02:22:06.256Z,98927.34
2019-03-16T02:24:36.543Z,98924.30
2019-03-16T02:27:06.382Z,98919.14
2019-03-16T02:29:36.311Z,98917.88
2019-03-16T02:32:06.184Z,98908.02
2019-03-16T02:34:36.122Z,98909.28
2019-03-16T02:37:05.925Z,98909.24
2019-03-16T02:39:35.620Z,98905.77
2019-03-16T02:42:05.625Z,98903.19
2019-03-16T02:44:35.679Z,98901.50
2019-03-16T02:47:05.605Z,98896.87
2019-03-16T02:49:35.757Z,98902.86
2019-03-16T02:52:05.783Z,98900.67
2019-03-16T02:54:36.391Z,98905.38
2019-03-16T02:57:06.258Z,98901.42
2019-03-16T02:59:36.178Z,98893.18
2019-03-16T03:02:06.391Z,98896.58
2019-03-16T03:04:36.581Z,98890.56
2019-03-16T03:07:06.779Z,98893.22
2019-03-16T03:09:37.331Z,98892.90
2019-03-16T03:12:07.867Z,98886.45
2019-03-16T03:14:38.101Z,98879.13
2019-03-16T03:17:08.113Z,98870.92
2019-03-16T03:19:38.403Z,98876.91
2019-03-16T03:22:08.573Z,98873.43
2019-03-16T03:24:38.544Z,98865.25
2019-03-16T03:27:08.406Z,98866.94
2019-03-16T03:29:38.579Z,98867.73
2019-03-16T03:32:09.165Z,98865.97
2019-03-16T03:34:38.927Z,98859.01
2019-03-16T03:37:08.890Z,98865.42
2019-03-16T03:39:39.222Z,98861.12
2019-03-16T03:42:09.069Z,98863.66
2019-03-16T03:44:38.862Z,98864.88
2019-03-16T03:47:09.111Z,98864.84
2019-03-16T03:49:39.048Z,98858.39
2019-03-16T03:52:09.434Z,98851.19
2019-03-16T03:54:39.570Z,98858.08
2019-03-16T03:57:10.278Z,98851.23
2019-03-16T03:59:40.717Z,98852.55
2019-03-16T04:02:10.904Z,98846.14
2019-03-16T04:04:41.355Z,98849.50
2019-03-16T04:07:11.356Z,98855.02
2019-03-16T04:09:41.212Z,98858.00
2019-03-16T04:12:11.173Z,98852.83
2019-03-16T04:14:41.311Z,98852.44
2019-03-16T04:17:11.823Z,98852.05
2019-03-16T04:19:41.791Z,98848.56
2019-03-16T04:22:11.652Z,98850.64
2019-03-16T04:24:45.143Z,98852.36
2019-03-16T04:27:16.360Z,98844.11
2019-03-16T04:29:45.970Z,98847.95
2019-03-16T04:32:15.674Z,98838.52
2019-03-16T04:34:45.489Z,98834.65
2019-03-16T04:37:15.485Z,98834.53
2019-03-16T04:39:45.620Z,98831.88
2019-03-16T04:42:15.411Z,98827.96
2019-03-16T04:44:45.490Z,98819.78
2019-03-16T04:47:15.588Z,98821.89
2019-03-16T04:49:45.444Z,98821.42
2019-03-16T04:52:16.094Z,98825.26
2019-03-16T04:54:46.393Z,98834.73
2019-03-16T04:57:16.713Z,98834.45
2019-03-16T04:59:46.986Z,98832.73
2019-03-16T05:02:16.883Z,98827.61
2019-03-16T05:04:47.951Z,98822.88
2019-03-16T05:07:18.206Z,98822.91
2019-03-16T05:09:48.242Z,98823.77
2019-03-16T05:12:18.196Z,98816.58
2019-03-16T05:14:48.505Z,98819.11
2019-03-16T05:17:18.438Z,98816.46
2019-03-16T05:19:48.493Z,98814.27
2019-03-16T05:22:18.629Z,98802.14
2019-03-16T05:24:49.093Z,98805.11
2019-03-16T05:27:19.014Z,98804.68
2019-03-16T05:29:49.630Z,98796.38
2019-03-16T05:32:19.634Z,98806.63
2019-03-16T05:34:56.294Z,98806.94
2019-03-16T05:37:21.861Z,98797.95
2019-03-16T05:39:51.792Z,98804.36
2019-03-16T05:42:22.582Z,98795.32
2019-03-16T05:44:52.603Z,98798.34
2019-03-16T05:47:22.899Z,98799.11
2019-03-16T05:49:52.798Z,98799.42
2019-03-16T05:52:23.256Z,98794.21
2019-03-16T05:54:53.097Z,98788.54
2019-03-16T05:57:24.503Z,98781.64
2019-03-16T05:59:54.818Z,98787.64
2019-03-16T06:02:24.711Z,98782.82
2019-03-16T06:04:54.829Z,98784.53
2019-03-16T06:07:24.926Z,98788.30
2019-03-16T06:09:54.991Z,98785.23
2019-03-16T06:12:25.262Z,98780.02
2019-03-16T06:14:55.524Z,98780.45
2019-03-16T06:17:25.555Z,98768.92
2019-03-16T06:19:55.590Z,98778.47
2019-03-16T06:22:25.808Z,98773.78
2019-03-16T06:24:55.973Z,98775.93
2019-03-16T06:27:26.079Z,98768.92
2019-03-16T06:29:56.420Z,98769.13
2019-03-16T06:32:26.919Z,98764.66
2019-03-16T06:34:56.970Z,98758.50
2019-03-16T06:37:27.154Z,98758.41
2019-03-16T06:39:57.528Z,98753.63
2019-03-16T06:42:28.100Z,98752.20
2019-03-16T06:44:58.288Z,98751.56
2019-03-16T06:47:28.525Z,98762.97
2019-03-16T06:49:58.604Z,98750.47
2019-03-16T06:52:28.907Z,98746.59
2019-03-16T06:54:59.884Z,98750.81
2019-03-16T06:57:30.003Z,98746.89
2019-03-16T07:00:00.811Z,98741.16
2019-03-16T07:02:31.315Z,98734.55
2019-03-16T07:05:01.785Z,98740.06
2019-03-16T07:07:32.220Z,98734.33
2019-03-16T07:10:02.572Z,98734.67
2019-03-16T07:12:34.827Z,98731.99
2019-03-16T07:15:04.826Z,98731.47
2019-03-16T07:17:34.987Z,98727.45
2019-03-16T07:20:05.591Z,98720.76
2019-03-16T07:22:36.020Z,98725.73
2019-03-16T07:25:05.917Z,98723.05
2019-03-16T07:27:35.838Z,98731.09
2019-03-16T07:30:05.830Z,98719.45
2019-03-16T07:32:36.160Z,98723.83
2019-03-16T07:35:06.601Z,98726.21
2019-03-16T07:37:36.739Z,98724.02
2019-03-16T07:40:07.389Z,98722.15
2019-03-16T07:42:37.794Z,98722.15
2019-03-16T07:45:09.025Z,98719.23
2019-03-16T07:47:39.475Z,98718.32
2019-03-16T07:50:10.332Z,98722.48
2019-03-16T07:52:40.206Z,98714.67
2019-03-16T07:55:10.466Z,98715.86
2019-03-16T07:57:41.110Z,98713.05
2019-03-16T08:00:11.504Z,98712.78
2019-03-16T08:02:41.553Z,98711.02
2019-03-16T08:05:18.292Z,98711.48
2019-03-16T08:07:43.398Z,98714.95
2019-03-16T08:10:13.505Z,98711.77
2019-03-16T08:12:43.729Z,98716.61
2019-03-16T08:15:14.129Z,98709.02
2019-03-16T08:17:44.396Z,98712.55
2019-03-16T08:20:14.824Z,98711.00
2019-03-16T08:22:45.142Z,98712.95
2019-03-16T08:25:15.597Z,98711.45
2019-03-16T08:27:54.127Z,98706.87
2019-03-16T08:30:18.116Z,98703.70
2019-03-16T08:32:48.125Z,98701.16
2019-03-16T08:35:18.767Z,98698.64
2019-03-16T08:37:49.220Z,98697.43
2019-03-16T08:40:19.695Z,98692.47
2019-03-16T08:42:51.476Z,98695.34
2019-03-16T08:45:24.417Z,98686.42
2019-03-16T08:47:54.688Z,98682.59
2019-03-16T08:50:24.823Z,98689.29
2019-03-16T08:52:55.491Z,98680.48
2019-03-16T08:55:25.593Z,98681.02
2019-03-16T08:58:06.022Z,98681.02
2019-03-16T09:00:31.231Z,98682.63
2019-03-16T09:03:01.348Z,98678.48
2019-03-16T09:05:32.328Z,98679.98
2019-03-16T09:08:02.675Z,98677.59
2019-03-16T09:10:33.460Z,98674.02
2019-03-16T09:13:03.794Z,98675.07
2019-03-16T09:15:33.934Z,98674.63
2019-03-16T09:18:04.326Z,98669.86
2019-03-16T09:20:34.498Z,98670.58
2019-03-16T09:23:04.502Z,98668.77
2019-03-16T09:25:34.499Z,98664.81
2019-03-16T09:28:14.016Z,98665.41
2019-03-16T09:30:36.981Z,98657.47
2019-03-16T09:33:07.149Z,98654.37
2019-03-16T09:35:37.112Z,98655.80
2019-03-16T09:38:07.121Z,98659.09
2019-03-16T09:40:37.165Z,98648.64
2019-03-16T09:43:07.376Z,98650.58
2019-03-16T09:45:37.737Z,98649.53
2019-03-16T09:48:07.547Z,98647.13
2019-03-16T09:50:37.675Z,98647.62
2019-03-16T09:53:07.779Z,98656.02
2019-03-16T09:55:37.572Z,98657.00
2019-03-16T09:58:08.129Z,98649.09
2019-03-16T10:00:38.318Z,98652.00
2019-03-16T10:03:08.224Z,98652.66
2019-03-16T10:05:38.650Z,98648.71
2019-03-16T10:08:08.640Z,98644.19
2019-03-16T10:10:38.440Z,98643.27
2019-03-16T10:13:09.398Z,98639.75
2019-03-16T10:15:39.461Z,98644.56
2019-03-16T10:18:09.358Z,98640.86
2019-03-16T10:20:39.984Z,98641.30
2019-03-16T10:23:10.786Z,98642.59
2019-03-16T10:25:42.108Z,98646.14
2019-03-16T10:28:13.667Z,98633.73
2019-03-16T10:30:43.675Z,98635.14
2019-03-16T10:33:14.043Z,98628.41
2019-03-16T10:35:44.059Z,98640.20
2019-03-16T10:38:13.962Z,98627.48
2019-03-16T10:40:44.179Z,98641.75
2019-03-16T10:43:14.030Z,98635.59
2019-03-16T10:45:44.399Z,98633.92
2019-03-16T10:48:14.402Z,98637.73
2019-03-16T10:50:44.842Z,98625.73
2019-03-16T10:53:14.969Z,98625.19
2019-03-16T10:55:44.940Z,98625.31
2019-03-16T10:58:15.083Z,98615.61
2019-03-16T11:00:45.140Z,98619.81
2019-03-16T11:03:15.399Z,98619.38
2019-03-16T11:05:46.136Z,98622.22
2019-03-16T11:08:17.081Z,98617.76
2019-03-16T11:10:47.297Z,98621.78
2019-03-16T11:13:17.462Z,98616.81
2019-03-16T11:15:47.491Z,98616.50
2019-03-16T11:18:18.045Z,98623.96
2019-03-16T11:20:48.757Z,98619.75
2019-03-16T11:23:19.261Z,98619.34
2019-03-16T11:25:49.523Z,98618.14
2019-03-16T11:28:19.651Z,98610.92
2019-03-16T11:30:49.804Z,98610.54
2019-03-16T11:33:19.570Z,98610.98
2019-03-16T11:35:52.446Z,98608.80
2019-03-16T11:38:22.371Z,98603.39
2019-03-16T11:40:52.429Z,98606.56
2019-03-16T11:43:22.529Z,98599.69
2019-03-16T11:45:53.355Z,98597.64
2019-03-16T11:48:23.350Z,98597.89
2019-03-16T11:50:53.253Z,98590.99
2019-03-16T11:53:23.269Z,98593.08
2019-03-16T11:55:54.590Z,98593.33
2019-03-16T11:58:24.975Z,98591.75
2019-03-16T12:00:54.854Z,98584.95
2019-03-16T12:03:24.983Z,98590.27
2019-03-16T12:05:55.897Z,98590.11
2019-03-16T12:08:25.854Z,98580.84
2019-03-16T12:10:56.274Z,98586.91
2019-03-16T12:13:26.526Z,98585.61
2019-03-16T12:15:56.379Z,98587.45
2019-03-16T12:18:26.695Z,98577.42
2019-03-16T12:20:56.642Z,98581.19
2019-03-16T12:23:26.703Z,98579.62
2019-03-16T12:25:56.452Z,98577.95
2019-03-16T12:28:26.600Z,98580.27
2019-03-16T12:30:56.478Z,98576.19
2019-03-16T12:33:26.378Z,98576.95
2019-03-16T12:35:56.667Z,98571.70
2019-03-16T12:38:26.466Z,98578.18
2019-03-16T12:40:57.742Z,98571.19
2019-03-16T12:43:28.001Z,98566.77
2019-03-16T12:45:57.860Z,98568.59
2019-03-16T12:48:28.093Z,98563.91
2019-03-16T12:50:58.255Z,98565.53
2019-03-16T12:53:29.254Z,98562.11
2019-03-16T12:55:59.536Z,98560.50
2019-03-16T12:58:29.745Z,98560.16
2019-03-16T13:00:59.814Z,98554.65
2019-03-16T13:03:30.030Z,98553.89
2019-03-16T13:06:00.177Z,98550.98
2019-03-16T13:08:30.335Z,98565.81
2019-03-16T13:11:00.607Z,98564.20
2019-03-16T13:13:30.668Z,98560.05
2019-03-16T13:16:00.604Z,98557.20
2019-03-16T13:18:31.310Z,98563.97
2019-03-16T13:21:01.730Z,98552.61
2019-03-16T13:23:32.530Z,98559.30
2019-03-16T13:26:02.373Z,98560.54
2019-03-16T13:28:35.526Z,98549.79
2019-03-16T13:31:05.320Z,98556.33
2019-03-16T13:33:35.919Z,98557.62
2019-03-16T13:36:06.737Z,98558.77
2019-03-16T13:38:36.675Z,98549.70
2019-03-16T13:41:06.864Z,98548.40
2019-03-16T13:43:37.058Z,98544.52
2019-03-16T13:46:09.223Z,98542.84
2019-03-16T13:48:39.381Z,98545.05
2019-03-16T13:51:09.320Z,98542.52
2019-03-16T13:53:39.396Z,98545.11
2019-03-16T13:56:09.598Z,98544.61
2019-03-16T13:58:40.880Z,98535.44
2019-03-16T14:01:11.073Z,98544.01
2019-03-16T14:03:41.167Z,98534.08
2019-03-16T14:06:11.676Z,98533.16
2019-03-16T14:08:42.417Z,98534.02
2019-03-16T14:11:15.520Z,98533.95
2019-03-16T14:13:46.569Z,98536.55
2019-03-16T14:16:20.146Z,98528.71
2019-03-16T14:18:53.757Z,98536.55
2019-03-16T14:21:24.684Z,98527.28
2019-03-16T14:23:57.917Z,98526.91
2019-03-16T14:26:27.953Z,98527.66
2019-03-16T14:28:57.944Z,98529.75
2019-03-16T14:31:28.089Z,98526.24
2019-03-16T14:33:58.062Z,98526.69
2019-03-16T14:36:27.930Z,98543.09
2019-03-16T14:38:58.184Z,98532.34
2019-03-16T14:41:28.601Z,98537.53
2019-03-16T14:43:59.148Z,98535.38
2019-03-16T14:46:29.091Z,98530.67
2019-03-16T14:49:00.647Z,98526.84
2019-03-16T14:51:30.806Z,98535.06
2019-03-16T14:54:01.010Z,98539.07
2019-03-16T14:56:31.229Z,98536.95
2019-03-16T14:59:01.288Z,98534.36
2019-03-16T15:01:31.234Z,98538.19
2019-03-16T15:04:01.096Z,98536.89
2019-03-16T15:06:31.103Z,98533.51
2019-03-16T15:09:00.861Z,98536.63
2019-03-16T15:11:30.658Z,98536.16
2019-03-16T15:14:01.868Z,98543.94
2019-03-16T15:16:31.780Z,98546.20
2019-03-16T15:19:01.722Z,98541.14
2019-03-16T15:21:32.020Z,98540.38
2019-03-16T15:24:02.112Z,98539.09
2019-03-16T15:26:32.199Z,98536.62
2019-03-16T15:29:02.409Z,98537.47
2019-03-16T15:31:32.728Z,98540.88
2019-03-16T15:34:03.289Z,98542.27
2019-03-16T15:36:33.454Z,98541.16
2019-03-16T15:39:05.489Z,98540.52
2019-03-16T15:41:35.389Z,98535.45
2019-03-16T15:44:05.623Z,98537.19
2019-03-16T15:46:35.563Z,98540.91
2019-03-16T15:49:05.829Z,98546.15
2019-03-16T15:51:35.807Z,98550.80
2019-03-16T15:54:05.913Z,98550.09
2019-03-16T15:56:35.826Z,98555.66
2019-03-16T15:59:05.627Z,98559.55
2019-03-16T16:01:35.805Z,98553.01
2019-03-16T16:04:05.918Z,98561.09
2019-03-16T16:06:35.730Z,98559.69
2019-03-16T16:09:06.380Z,98574.31
2019-03-16T16:11:36.180Z,98566.92
2019-03-16T16:14:06.378Z,98557.80
2019-03-16T16:16:36.588Z,98561.19
2019-03-16T16:19:06.503Z,98565.95
2019-03-16T16:21:36.641Z,98564.22
2019-03-16T16:24:06.743Z,98565.95
2019-03-16T16:26:36.714Z,98576.41
2019-03-16T16:29:06.974Z,98577.82
2019-03-16T16:31:36.813Z,98584.36
2019-03-16T16:34:06.999Z,98587.92
2019-03-16T16:36:37.047Z,98588.30
2019-03-16T16:39:07.425Z,98579.23
2019-03-16T16:41:37.378Z,98595.69
2019-03-16T16:44:07.523Z,98585.39
2019-03-16T16:46:37.669Z,98599.58
2019-03-16T16:49:07.529Z,98594.02
2019-03-16T16:51:37.679Z,98588.03
2019-03-16T16:54:07.806Z,98582.91
2019-03-16T16:56:37.691Z,98579.34
2019-03-16T16:59:08.144Z,98573.64
2019-03-16T17:01:37.964Z,98575.25
2019-03-16T17:04:07.918Z,98583.63
2019-03-16T17:06:38.024Z,98576.88
2019-03-16T17:09:08.334Z,98568.94
2019-03-16T17:11:38.524Z,98565.27
2019-03-16T17:14:08.521Z,98564.23
2019-03-16T17:16:38.583Z,98566.28
2019-03-16T17:19:08.587Z,98572.75
2019-03-16T17:21:38.536Z,98572.50
2019-03-16T17:24:09.355Z,98579.52
2019-03-16T17:26:39.489Z,98586.47
2019-03-16T17:29:09.354Z,98578.86
2019-03-16T17:31:42.545Z,98584.64
2019-03-16T17:34:11.441Z,98593.50
2019-03-16T17:36:41.398Z,98585.12
2019-03-16T17:39:11.336Z,98584.00
2019-03-16T17:41:41.160Z,98590.48
2019-03-16T17:44:11.050Z,98601.63
2019-03-16T17:46:41.117Z,98602.40
2019-03-16T17:49:11.053Z,98600.61
2019-03-16T17:51:40.843Z,98603.14
2019-03-16T17:54:10.959Z,98605.25
2019-03-16T17:56:40.674Z,98609.94
2019-03-16T17:59:11.674Z,98614.32
2019-03-16T18:01:53.975Z,98619.06
2019-03-16T18:04:13.626Z,98623.92
2019-03-16T18:06:43.656Z,98617.29
2019-03-16T18:09:13.386Z,98622.25
2019-03-16T18:11:44.252Z,98622.84
2019-03-16T18:14:14.574Z,98624.13
2019-03-16T18:16:44.765Z,98618.25
2019-03-16T18:19:14.633Z,98623.01
2019-03-16T18:21:44.868Z,98620.31
2019-03-16T18:24:14.980Z,98607.69
2019-03-16T18:26:45.259Z,98605.68
2019-03-16T18:29:16.135Z,98602.82
2019-03-16T18:31:46.315Z,98601.20
2019-03-16T18:34:16.562Z,98605.08
2019-03-16T18:36:46.517Z,98608.00
2019-03-16T18:39:16.570Z,98614.42
2019-03-16T18:41:46.634Z,98616.42
2019-03-16T18:44:16.814Z,98620.69
2019-03-16T18:46:47.653Z,98619.88
2019-03-16T18:49:17.588Z,98620.75
2019-03-16T18:51:47.886Z,98618.62
2019-03-16T18:54:18.118Z,98614.80
2019-03-16T18:56:48.140Z,98608.91
2019-03-16T18:59:18.558Z,98606.93
2019-03-16T19:01:49.025Z,98605.83
2019-03-16T19:04:19.012Z,98609.06
2019-03-16T19:06:49.266Z,98609.66
2019-03-16T19:09:19.408Z,98614.56
2019-03-16T19:11:49.530Z,98611.84
2019-03-16T19:14:19.573Z,98615.17
2019-03-16T19:16:49.841Z,98608.48
2019-03-16T19:19:20.039Z,98607.98
2019-03-16T19:21:50.049Z,98613.78
2019-03-16T19:24:20.054Z,98611.30
2019-03-16T19:26:49.944Z,98615.61
2019-03-16T19:29:20.776Z,98611.73
2019-03-16T19:31:51.472Z,98619.44
2019-03-16T19:34:21.449Z,98623.22
2019-03-16T19:36:51.702Z,98625.70
2019-03-16T19:39:21.430Z,98622.31
2019-03-16T19:41:53.875Z,98619.28
2019-03-16T19:44:24.065Z,98615.35
2019-03-16T19:46:54.177Z,98619.23
2019-03-16T19:49:24.150Z,98618.43
2019-03-16T19:51:54.075Z,98627.09
2019-03-16T19:54:23.999Z,98624.13
2019-03-16T19:56:54.009Z,98631.36
2019-03-16T19:59:24.295Z,98621.77
2019-03-16T20:01:54.001Z,98621.63
2019-03-16T20:04:35.462Z,98634.65
2019-03-16T20:06:55.889Z,98626.99
2019-03-16T20:09:26.012Z,98628.77
2019-03-16T20:11:56.508Z,98634.91
2019-03-16T20:14:26.343Z,98631.70
2019-03-16T20:16:56.464Z,98642.16
2019-03-16T20:19:26.646Z,98638.23
2019-03-16T20:21:56.806Z,98637.11
2019-03-16T20:24:26.931Z,98638.64
2019-03-16T20:26:56.981Z,98636.71
2019-03-16T20:29:27.218Z,98645.67
2019-03-16T20:31:57.317Z,98640.55
2019-03-16T20:34:27.195Z,98642.74
2019-03-16T20:36:58.324Z,98643.08
2019-03-16T20:39:28.552Z,98645.81
2019-03-16T20:41:58.499Z,98648.95
2019-03-16T20:44:28.789Z,98652.63
2019-03-16T20:46:59.046Z,98651.17
2019-03-16T20:49:29.107Z,98648.44
2019-03-16T20:51:59.250Z,98650.98
2019-03-16T20:54:29.311Z,98651.36
2019-03-16T20:56:59.012Z,98645.69
2019-03-16T20:59:28.789Z,98654.64
2019-03-16T21:01:58.827Z,98652.83
2019-03-16T21:04:28.598Z,98652.77
2019-03-16T21:06:58.380Z,98660.81
2019-03-16T21:09:28.133Z,98647.81
2019-03-16T21:11:59.569Z,98659.31
2019-03-16T21:14:29.529Z,98650.62
2019-03-16T21:16:59.411Z,98647.11
2019-03-16T21:19:29.270Z,98648.36
2019-03-16T21:21:59.836Z,98652.23
2019-03-16T21:24:29.611Z,98665.57
2019-03-16T21:26:59.529Z,98664.28
2019-03-16T21:29:29.518Z,98667.36
2019-03-16T21:31:59.930Z,98657.80
2019-03-16T21:34:29.832Z,98661.63
2019-03-16T21:37:00.038Z,98666.28
2019-03-16T21:39:29.985Z,98666.75
2019-03-16T21:41:59.820Z,98671.94
2019-03-16T21:44:29.809Z,98673.56
2019-03-16T21:46:59.892Z,98674.05
2019-03-16T21:49:29.822Z,98668.55
2019-03-16T21:52:02.631Z,98664.66
2019-03-16T21:54:31.847Z,98662.45
2019-03-16T21:57:02.368Z,98665.52
2019-03-16T21:59:32.421Z,98672.81
2019-03-16T22:02:02.526Z,98672.10
2019-03-16T22:04:32.549Z,98671.25
2019-03-16T22:07:02.590Z,98682.57
2019-03-16T22:09:32.741Z,98679.54
2019-03-16T22:12:02.730Z,98688.66
2019-03-16T22:14:33.035Z,98696.87
2019-03-16T22:17:02.844Z,98697.78
2019-03-16T22:19:32.811Z,98701.22
2019-03-16T22:22:02.981Z,98699.07
2019-03-16T22:24:32.741Z,98699.07
2019-03-16T22:27:02.708Z,98704.25
2019-03-16T22:29:32.514Z,98697.72
2019-03-16T22:32:02.483Z,98706.34
2019-03-16T22:34:32.354Z,98710.18
2019-03-16T22:37:02.343Z,98704.09
2019-03-16T22:39:32.176Z,98698.91
2019-03-16T22:42:02.027Z,98694.17
2019-03-16T22:44:31.626Z,98702.32
2019-03-16T22:47:01.594Z,98701.50
2019-03-16T22:49:31.668Z,98704.14
2019-03-16T22:52:01.636Z,98711.05
2019-03-16T22:54:31.352Z,98725.19
2019-03-16T22:57:01.209Z,98723.45
2019-03-16T22:59:30.896Z,98731.28
2019-03-16T23:02:00.751Z,98726.16
2019-03-16T23:04:30.679Z,98726.54
2019-03-16T23:07:00.476Z,98723.13
2019-03-16T23:09:30.443Z,98727.40
2019-03-16T23:12:00.315Z,98717.86
2019-03-16T23:14:30.440Z,98727.34
2019-03-16T23:17:00.048Z,98719.63
2019-03-16T23:19:29.734Z,98717.14
2019-03-16T23:21:59.633Z,98722.77
2019-03-16T23:24:29.545Z,98731.00
2019-03-16T23:26:59.523Z,98734.42
2019-03-16T23:29:29.392Z,98737.91
2019-03-16T23:31:59.168Z,98737.00
2019-03-16T23:34:28.914Z,98743.04
2019-03-16T23:36:58.788Z,98745.19
2019-03-16T23:39:28.608Z,98751.67
2019-03-16T23:41:58.357Z,98749.08
2019-03-16T23:44:28.229Z,98752.96
2019-03-16T23:46:58.312Z,98748.50
2019-03-16T23:49:28.258Z,98747.64
2019-03-16T23:51:58.177Z,98747.64
2019-03-16T23:54:28.077Z,98743.37
2019-03-16T23:56:57.884Z,98749.36
2019-03-16T23:59:27.697Z,98744.95
